Notice: Undefined index: language in /home/u232659314/public_html/vam/index.php on line 31
Pluna Virtual

METAR AND TAF INFORMATION
METAR FOR SUCA
ADDS - METARS form results

(0347 UTC 19 January 2019)
Data provider http://aviationweather.gov/metar/data/
 
Forecast for: SUCA (COLONIA SACRAMEN, UY)
Text: SUCA 182350Z 1900/1924 11015KT 9999 SCT020 TX24/1918Z TN15/1909Z
Forecast period: 0000 UTC 19 January 2019 to 0000 UTC 20 January 2019
Forecast type: FROM: standard forecast or significant change
Winds: from the ESE (110 degrees) at 17 MPH (15 knots; 7.7 m/s)
Visibility: 6 or more miles 10+ km)
Ceiling: at least 12,000 feet AGL
Clouds: scattered clouds at 2000 feet AGL
Weather: no significant weather forecast for this period

AIRPORT MAP

RUNWAY INFORMATION
Runway 12 Runway length 4495 ft Runway width 0 ft
Runway elevation 66 ft Runway displaced threshold 0 ft Runway heading 0
Runway 30 Runway length 4495 ft Runway width 0 ft
Runway elevation 33 ft Runway displaced threshold 0 ft Runway heading 0

AIRPORT FREQUENCIES

AIRPORT NEAR NAVIGATION AIDS
Type NDB Name Colonia Frequency 203 KHZ